createdAt,value
2017-07-25T00:00:09.088Z,939.39
2017-07-25T00:00:37.316Z,939.39
2017-07-25T00:01:05.381Z,939.41
2017-07-25T00:01:33.636Z,939.41
2017-07-25T00:02:01.759Z,939.45
2017-07-25T00:02:30.091Z,939.45
2017-07-25T00:02:58.231Z,939.45
2017-07-25T00:03:26.355Z,939.42
2017-07-25T00:03:54.555Z,939.43
2017-07-25T00:04:22.700Z,939.42
2017-07-25T00:04:50.958Z,939.46
2017-07-25T00:05:19.113Z,939.41
2017-07-25T00:05:47.341Z,939.44
2017-07-25T00:06:15.586Z,939.43
2017-07-25T00:06:43.833Z,939.44
2017-07-25T00:07:12.096Z,939.44
2017-07-25T00:07:40.379Z,939.45
2017-07-25T00:08:08.658Z,939.45
2017-07-25T00:08:36.720Z,939.45
2017-07-25T00:09:04.883Z,939.46
2017-07-25T00:09:33.146Z,939.48
2017-07-25T00:10:01.423Z,939.5
2017-07-25T00:10:29.565Z,939.52
2017-07-25T00:10:57.777Z,939.48
2017-07-25T00:11:25.982Z,939.54
2017-07-25T00:11:54.094Z,939.53
2017-07-25T00:12:22.211Z,939.52
2017-07-25T00:12:50.528Z,939.51
2017-07-25T00:13:18.640Z,939.48
2017-07-25T00:13:46.661Z,939.51
2017-07-25T00:14:14.929Z,939.51
2017-07-25T00:14:42.928Z,939.5
2017-07-25T00:15:11.001Z,939.44
2017-07-25T00:15:39.017Z,939.48
2017-07-25T00:16:07.143Z,939.48
2017-07-25T00:16:35.337Z,939.5
2017-07-25T00:17:03.536Z,939.49
2017-07-25T00:17:31.774Z,939.47
2017-07-25T00:17:59.916Z,939.5
2017-07-25T00:18:28.051Z,939.48
2017-07-25T00:18:56.133Z,939.47
2017-07-25T00:19:24.225Z,939.48
2017-07-25T00:19:52.324Z,939.49
2017-07-25T00:20:20.443Z,939.49
2017-07-25T00:20:48.683Z,939.5
2017-07-25T00:21:16.859Z,939.52
2017-07-25T00:21:45.157Z,939.54
2017-07-25T00:22:13.241Z,939.48
2017-07-25T00:22:41.557Z,939.53
2017-07-25T00:23:09.720Z,939.53
2017-07-25T00:23:37.928Z,939.51
2017-07-25T00:24:06.046Z,939.53
2017-07-25T00:24:34.226Z,939.53
2017-07-25T00:25:02.271Z,939.52
2017-07-25T00:25:30.493Z,939.57
2017-07-25T00:25:58.618Z,939.55
2017-07-25T00:26:26.757Z,939.58
2017-07-25T00:26:54.979Z,939.6
2017-07-25T00:27:23.176Z,939.58
2017-07-25T00:27:51.527Z,939.54
2017-07-25T00:28:19.617Z,939.57
2017-07-25T00:28:47.721Z,939.58
2017-07-25T00:29:15.868Z,939.59
2017-07-25T00:29:44.162Z,939.61
2017-07-25T00:30:12.284Z,939.61
2017-07-25T00:30:40.525Z,939.65
2017-07-25T00:31:08.695Z,939.62
2017-07-25T00:31:36.793Z,939.62
2017-07-25T00:32:04.898Z,939.61
2017-07-25T00:32:32.892Z,939.62
2017-07-25T00:33:01.230Z,939.64
2017-07-25T00:33:29.456Z,939.64
2017-07-25T00:33:57.531Z,939.63
2017-07-25T00:34:25.723Z,939.65
2017-07-25T00:34:53.944Z,939.61
2017-07-25T00:35:22.173Z,939.61
2017-07-25T00:35:50.368Z,939.65
2017-07-25T00:36:18.516Z,939.62
2017-07-25T00:36:46.659Z,939.65
2017-07-25T00:37:14.898Z,939.67
2017-07-25T00:37:43.141Z,939.64
2017-07-25T00:38:11.496Z,939.67
2017-07-25T00:38:39.710Z,939.65
2017-07-25T00:39:07.936Z,939.64
2017-07-25T00:39:36.112Z,939.66
2017-07-25T00:40:04.330Z,939.65
2017-07-25T00:40:32.532Z,939.65
2017-07-25T00:41:00.637Z,939.7
2017-07-25T00:41:28.777Z,939.69
2017-07-25T00:41:57.029Z,939.67
2017-07-25T00:42:25.254Z,939.69
2017-07-25T00:42:53.588Z,939.68
2017-07-25T00:43:21.833Z,939.69
2017-07-25T00:43:50.059Z,939.71
2017-07-25T00:44:18.164Z,939.72
2017-07-25T00:44:46.378Z,939.75
2017-07-25T00:45:14.663Z,939.75
2017-07-25T00:45:42.853Z,939.75
2017-07-25T00:46:10.978Z,939.74
2017-07-25T00:46:39.134Z,939.72
2017-07-25T00:47:07.103Z,939.72
2017-07-25T00:47:35.255Z,939.74
2017-07-25T00:48:03.621Z,939.71
2017-07-25T00:48:31.868Z,939.75
2017-07-25T00:48:59.994Z,939.75
2017-07-25T00:49:28.102Z,939.75
2017-07-25T00:49:56.337Z,939.76
2017-07-25T00:50:24.470Z,939.75
2017-07-25T00:50:52.700Z,939.72
2017-07-25T00:51:20.756Z,939.75
2017-07-25T00:51:48.904Z,939.74
2017-07-25T00:52:17.118Z,939.8
2017-07-25T00:52:45.216Z,939.76
2017-07-25T00:53:13.386Z,939.77
2017-07-25T00:53:41.602Z,939.77
2017-07-25T00:54:09.829Z,939.79
2017-07-25T00:54:37.925Z,939.76
2017-07-25T00:55:06.017Z,939.81
2017-07-25T00:55:34.251Z,939.79
2017-07-25T00:56:02.482Z,939.77
2017-07-25T00:56:30.722Z,939.83
2017-07-25T00:56:58.958Z,939.78
2017-07-25T00:57:27.162Z,939.77
2017-07-25T00:57:55.201Z,939.81
2017-07-25T00:58:23.440Z,939.78
2017-07-25T00:58:51.645Z,939.75
2017-07-25T00:59:19.732Z,939.79
2017-07-25T00:59:47.971Z,939.78
2017-07-25T01:00:16.189Z,939.79
2017-07-25T01:00:44.310Z,939.8
2017-07-25T01:01:12.478Z,939.77
2017-07-25T01:01:40.573Z,939.76
2017-07-25T01:02:08.640Z,939.74
2017-07-25T01:02:36.795Z,939.79
2017-07-25T01:03:04.997Z,939.79
2017-07-25T01:03:33.122Z,939.79
2017-07-25T01:04:01.346Z,939.8
2017-07-25T01:04:29.602Z,939.8
2017-07-25T01:04:57.757Z,939.76
2017-07-25T01:05:25.853Z,939.78
2017-07-25T01:05:54.120Z,939.74
2017-07-25T01:06:22.314Z,939.79
2017-07-25T01:06:50.521Z,939.75
2017-07-25T01:07:18.622Z,939.77
2017-07-25T01:07:46.730Z,939.75
2017-07-25T01:08:14.927Z,939.77
2017-07-25T01:08:43.117Z,939.78
2017-07-25T01:09:11.337Z,939.76
2017-07-25T01:09:39.499Z,939.76
2017-07-25T01:10:07.704Z,939.78
2017-07-25T01:10:35.924Z,939.78
2017-07-25T01:11:04.107Z,939.8
2017-07-25T01:11:32.211Z,939.8
2017-07-25T01:12:00.329Z,939.8
2017-07-25T01:12:28.557Z,939.77
2017-07-25T01:12:56.801Z,939.75
2017-07-25T01:13:24.878Z,939.77
2017-07-25T01:13:52.994Z,939.79
2017-07-25T01:14:20.977Z,939.74
2017-07-25T01:14:48.982Z,939.77
2017-07-25T01:15:17.119Z,939.74
2017-07-25T01:15:45.182Z,939.74
2017-07-25T01:16:13.212Z,939.76
2017-07-25T01:16:41.346Z,939.75
2017-07-25T01:17:09.499Z,939.75
2017-07-25T01:17:37.588Z,939.8
2017-07-25T01:18:05.764Z,939.75
2017-07-25T01:18:33.978Z,939.75
2017-07-25T01:19:02.123Z,939.78
2017-07-25T01:19:30.337Z,939.79
2017-07-25T01:19:58.490Z,939.75
2017-07-25T01:20:26.603Z,939.76
2017-07-25T01:20:54.714Z,939.76
2017-07-25T01:21:22.850Z,939.78
2017-07-25T01:21:51.065Z,939.78
2017-07-25T01:22:19.150Z,939.79
2017-07-25T01:22:47.180Z,939.79
2017-07-25T01:23:15.537Z,939.78
2017-07-25T01:23:43.637Z,939.81
2017-07-25T01:24:11.795Z,939.76
2017-07-25T01:24:40.038Z,939.78
2017-07-25T01:25:08.214Z,939.77
2017-07-25T01:25:36.361Z,939.74
2017-07-25T01:26:04.548Z,939.77
2017-07-25T01:26:32.801Z,939.75
2017-07-25T01:27:01.019Z,939.75
2017-07-25T01:27:29.126Z,939.75
2017-07-25T01:27:57.268Z,939.74
2017-07-25T01:28:25.599Z,939.71
2017-07-25T01:28:53.747Z,939.74
2017-07-25T01:29:21.917Z,939.73
2017-07-25T01:29:49.997Z,939.75
2017-07-25T01:30:18.202Z,939.74
2017-07-25T01:30:46.420Z,939.75
2017-07-25T01:31:14.645Z,939.73
2017-07-25T01:31:42.913Z,939.79
2017-07-25T01:32:11.006Z,939.77
2017-07-25T01:32:39.044Z,939.73
2017-07-25T01:33:07.086Z,939.72
2017-07-25T01:33:35.391Z,939.72
2017-07-25T01:34:03.539Z,939.74
2017-07-25T01:34:31.656Z,939.74
2017-07-25T01:34:59.897Z,939.73
2017-07-25T01:35:28.093Z,939.73
2017-07-25T01:35:56.258Z,939.72
2017-07-25T01:36:24.471Z,939.75
2017-07-25T01:36:52.646Z,939.72
2017-07-25T01:37:20.770Z,939.72
2017-07-25T01:37:48.885Z,939.74
2017-07-25T01:38:17.142Z,939.72
2017-07-25T01:38:45.366Z,939.7
2017-07-25T01:39:13.496Z,939.73
2017-07-25T01:39:41.639Z,939.71
2017-07-25T01:40:09.890Z,939.76
2017-07-25T01:40:38.147Z,939.71
2017-07-25T01:41:06.269Z,939.74
2017-07-25T01:41:34.302Z,939.77
2017-07-25T01:42:02.523Z,939.73
2017-07-25T01:42:30.778Z,939.74
2017-07-25T01:42:58.949Z,939.75
2017-07-25T01:43:27.366Z,939.72
2017-07-25T01:43:55.602Z,939.7
2017-07-25T01:44:23.753Z,939.71
2017-07-25T01:44:51.976Z,939.71
2017-07-25T01:45:20.115Z,939.68
2017-07-25T01:45:48.349Z,939.71
2017-07-25T01:46:16.555Z,939.7
2017-07-25T01:46:44.686Z,939.69
2017-07-25T01:47:12.919Z,939.69
2017-07-25T01:47:41.082Z,939.7
2017-07-25T01:48:09.222Z,939.69
2017-07-25T01:48:37.555Z,939.67
2017-07-25T01:49:05.834Z,939.65
2017-07-25T01:49:34.067Z,939.67
2017-07-25T01:50:02.129Z,939.68
2017-07-25T01:50:30.281Z,939.67
2017-07-25T01:50:58.468Z,939.69
2017-07-25T01:51:26.612Z,939.67
2017-07-25T01:51:54.764Z,939.62
2017-07-25T01:52:22.893Z,939.65
2017-07-25T01:52:51.177Z,939.63
2017-07-25T01:53:19.180Z,939.64
2017-07-25T01:53:47.481Z,939.67
2017-07-25T01:54:15.601Z,939.68
2017-07-25T01:54:43.768Z,939.67
2017-07-25T01:55:11.993Z,939.63
2017-07-25T01:55:40.097Z,939.61
2017-07-25T01:56:08.324Z,939.62
2017-07-25T01:56:36.548Z,939.63
2017-07-25T01:57:04.660Z,939.63
2017-07-25T01:57:32.878Z,939.64
2017-07-25T01:58:01.071Z,939.62
2017-07-25T01:58:29.274Z,939.68
2017-07-25T01:58:57.376Z,939.63
2017-07-25T01:59:25.618Z,939.64
2017-07-25T01:59:53.784Z,939.64
2017-07-25T02:00:21.955Z,939.64
2017-07-25T02:00:50.104Z,939.66
2017-07-25T02:01:18.251Z,939.62
2017-07-25T02:01:46.427Z,939.65
2017-07-25T02:02:14.480Z,939.62
2017-07-25T02:02:42.764Z,939.63
2017-07-25T02:03:11.006Z,939.65
2017-07-25T02:03:39.351Z,939.64
2017-07-25T02:04:07.538Z,939.61
2017-07-25T02:04:35.629Z,939.63
2017-07-25T02:05:03.765Z,939.63
2017-07-25T02:05:31.830Z,939.64
2017-07-25T02:06:00.026Z,939.65
2017-07-25T02:06:28.286Z,939.62
2017-07-25T02:06:56.451Z,939.64
2017-07-25T02:07:24.461Z,939.62
2017-07-25T02:07:52.675Z,939.64
2017-07-25T02:08:20.916Z,939.65
2017-07-25T02:08:49.282Z,939.65
2017-07-25T02:09:17.478Z,939.66
2017-07-25T02:09:45.727Z,939.65
2017-07-25T02:10:13.775Z,939.66
2017-07-25T02:10:41.968Z,939.67
2017-07-25T02:11:10.193Z,939.63
2017-07-25T02:11:38.214Z,939.65
2017-07-25T02:12:06.322Z,939.65
2017-07-25T02:12:34.511Z,939.67
2017-07-25T02:13:02.700Z,939.68
2017-07-25T02:13:31.008Z,939.66
2017-07-25T02:13:59.227Z,939.64
2017-07-25T02:14:27.410Z,939.65
2017-07-25T02:14:55.529Z,939.66
2017-07-25T02:15:23.667Z,939.66
2017-07-25T02:15:51.878Z,939.62
2017-07-25T02:16:19.900Z,939.64
2017-07-25T02:16:48.049Z,939.62
2017-07-25T02:17:16.232Z,939.61
2017-07-25T02:17:44.384Z,939.62
2017-07-25T02:18:12.594Z,939.63
2017-07-25T02:18:40.977Z,939.61
2017-07-25T02:19:08.982Z,939.62
2017-07-25T02:19:37.212Z,939.64
2017-07-25T02:20:05.398Z,939.64
2017-07-25T02:20:33.627Z,939.61
2017-07-25T02:21:01.810Z,939.63
2017-07-25T02:21:30.018Z,939.6
2017-07-25T02:21:58.162Z,939.63
2017-07-25T02:22:26.360Z,939.64
2017-07-25T02:22:54.494Z,939.61
2017-07-25T02:23:22.630Z,939.61
2017-07-25T02:23:51.000Z,939.63
2017-07-25T02:24:19.176Z,939.64
2017-07-25T02:24:47.409Z,939.63
2017-07-25T02:25:15.422Z,939.6
2017-07-25T02:25:43.518Z,939.61
2017-07-25T02:26:11.740Z,939.61
2017-07-25T02:26:39.862Z,939.55
2017-07-25T02:27:08.042Z,939.6
2017-07-25T02:27:36.303Z,939.58
2017-07-25T02:28:04.546Z,939.59
2017-07-25T02:28:32.566Z,939.58
2017-07-25T02:29:00.817Z,939.58
2017-07-25T02:29:28.934Z,939.6
2017-07-25T02:29:57.031Z,939.58
2017-07-25T02:30:25.065Z,939.58
2017-07-25T02:30:53.219Z,939.58
2017-07-25T02:31:21.333Z,939.57
2017-07-25T02:31:49.478Z,939.59
2017-07-25T02:32:17.466Z,939.57
2017-07-25T02:32:45.672Z,939.56
2017-07-25T02:33:13.663Z,939.56
2017-07-25T02:33:41.869Z,939.56
2017-07-25T02:34:10.198Z,939.54
2017-07-25T02:34:38.358Z,939.59
2017-07-25T02:35:06.450Z,939.54
2017-07-25T02:35:34.328Z,939.56
2017-07-25T02:36:02.511Z,939.56
2017-07-25T02:36:30.759Z,939.56
2017-07-25T02:36:58.968Z,939.57
2017-07-25T02:37:27.153Z,939.59
2017-07-25T02:37:55.303Z,939.59
2017-07-25T02:38:23.489Z,939.56
2017-07-25T02:38:51.811Z,939.57
2017-07-25T02:39:19.969Z,939.56
2017-07-25T02:39:48.212Z,939.58
2017-07-25T02:40:16.431Z,939.59
2017-07-25T02:40:44.516Z,939.59
2017-07-25T02:41:12.655Z,939.56
2017-07-25T02:41:40.811Z,939.59
2017-07-25T02:42:08.979Z,939.61
2017-07-25T02:42:37.063Z,939.61
2017-07-25T02:43:05.231Z,939.64
2017-07-25T02:43:33.469Z,939.6
2017-07-25T02:44:01.718Z,939.64
2017-07-25T02:44:29.865Z,939.6
2017-07-25T02:44:58.026Z,939.63
2017-07-25T02:45:26.142Z,939.61
2017-07-25T02:45:54.406Z,939.57
2017-07-25T02:46:22.330Z,939.62
2017-07-25T02:46:50.442Z,939.61
2017-07-25T02:47:18.637Z,939.6
2017-07-25T02:47:46.736Z,939.61
2017-07-25T02:48:14.974Z,939.62
2017-07-25T02:48:43.171Z,939.6
2017-07-25T02:49:11.450Z,939.62
2017-07-25T02:49:39.489Z,939.63
2017-07-25T02:50:07.655Z,939.61
2017-07-25T02:50:35.760Z,939.61
2017-07-25T02:51:03.974Z,939.63
2017-07-25T02:51:32.089Z,939.64
2017-07-25T02:52:00.255Z,939.66
2017-07-25T02:52:28.193Z,939.65
2017-07-25T02:52:56.311Z,939.67
2017-07-25T02:53:24.279Z,939.64
2017-07-25T02:53:52.448Z,939.65
2017-07-25T02:54:20.736Z,939.66
2017-07-25T02:54:48.766Z,939.62
2017-07-25T02:55:16.917Z,939.63
2017-07-25T02:55:45.066Z,939.64
2017-07-25T02:56:13.293Z,939.66
2017-07-25T02:56:41.442Z,939.64
2017-07-25T02:57:09.664Z,939.59
2017-07-25T02:57:37.793Z,939.64
2017-07-25T02:58:05.915Z,939.64
2017-07-25T02:58:33.978Z,939.62
2017-07-25T02:59:02.264Z,939.63
2017-07-25T02:59:30.361Z,939.63
2017-07-25T02:59:58.495Z,939.64
2017-07-25T03:00:26.580Z,939.64
2017-07-25T03:00:54.817Z,939.6
2017-07-25T03:01:22.950Z,939.65
2017-07-25T03:01:51.064Z,939.59
2017-07-25T03:02:19.272Z,939.64
2017-07-25T03:02:47.402Z,939.61
2017-07-25T03:03:15.559Z,939.62
2017-07-25T03:03:43.648Z,939.6
2017-07-25T03:04:11.849Z,939.58
2017-07-25T03:04:39.998Z,939.61
2017-07-25T03:05:08.071Z,939.6
2017-07-25T03:05:36.293Z,939.61
2017-07-25T03:06:04.491Z,939.61
2017-07-25T03:06:32.703Z,939.61
2017-07-25T03:07:00.800Z,939.61
2017-07-25T03:07:29.000Z,939.58
2017-07-25T03:07:57.192Z,939.58
2017-07-25T03:08:25.312Z,939.59
2017-07-25T03:08:53.559Z,939.6
2017-07-25T03:09:21.768Z,939.63
2017-07-25T03:09:49.935Z,939.61
2017-07-25T03:10:17.947Z,939.59
2017-07-25T03:10:46.161Z,939.61
2017-07-25T03:11:14.382Z,939.61
2017-07-25T03:11:42.409Z,939.62
2017-07-25T03:12:10.521Z,939.6
2017-07-25T03:12:38.748Z,939.6
2017-07-25T03:13:06.896Z,939.59
2017-07-25T03:13:34.987Z,939.59
2017-07-25T03:14:03.213Z,939.59
2017-07-25T03:14:31.396Z,939.59
2017-07-25T03:14:59.538Z,939.58
2017-07-25T03:15:27.601Z,939.59
2017-07-25T03:15:55.783Z,939.55
2017-07-25T03:16:23.913Z,939.58
2017-07-25T03:16:51.940Z,939.57
2017-07-25T03:17:20.175Z,939.58
2017-07-25T03:17:48.380Z,939.53
2017-07-25T03:18:16.608Z,939.57
2017-07-25T03:18:44.692Z,939.56
2017-07-25T03:19:13.007Z,939.56
2017-07-25T03:19:41.153Z,939.55
2017-07-25T03:20:09.307Z,939.55
2017-07-25T03:20:37.560Z,939.56
2017-07-25T03:21:05.676Z,939.57
2017-07-25T03:21:33.808Z,939.57
2017-07-25T03:22:01.827Z,939.57
2017-07-25T03:22:30.032Z,939.59
2017-07-25T03:22:58.180Z,939.57
2017-07-25T03:23:26.363Z,939.55
2017-07-25T03:23:54.587Z,939.56
2017-07-25T03:24:22.923Z,939.55
2017-07-25T03:24:51.113Z,939.56
2017-07-25T03:25:19.312Z,939.57
2017-07-25T03:25:47.554Z,939.54
2017-07-25T03:26:15.698Z,939.53
2017-07-25T03:26:43.901Z,939.58
2017-07-25T03:27:11.917Z,939.54
2017-07-25T03:27:40.112Z,939.56
2017-07-25T03:28:08.343Z,939.57
2017-07-25T03:28:36.572Z,939.56
2017-07-25T03:29:04.697Z,939.57
2017-07-25T03:29:32.977Z,939.53
2017-07-25T03:30:01.107Z,939.55
2017-07-25T03:30:29.289Z,939.53
2017-07-25T03:30:57.337Z,939.56
2017-07-25T03:31:25.443Z,939.53
2017-07-25T03:31:53.581Z,939.54
2017-07-25T03:32:21.593Z,939.54
2017-07-25T03:32:49.784Z,939.53
2017-07-25T03:33:17.964Z,939.54
2017-07-25T03:33:46.080Z,939.5
2017-07-25T03:34:14.211Z,939.52
2017-07-25T03:34:42.423Z,939.52
2017-07-25T03:35:10.626Z,939.51
2017-07-25T03:35:38.727Z,939.5
2017-07-25T03:36:06.968Z,939.5
2017-07-25T03:36:35.185Z,939.54
2017-07-25T03:37:03.291Z,939.52
2017-07-25T03:37:31.402Z,939.53
2017-07-25T03:37:59.617Z,939.52
2017-07-25T03:38:27.714Z,939.54
2017-07-25T03:38:55.823Z,939.52
2017-07-25T03:39:24.068Z,939.53
2017-07-25T03:39:52.271Z,939.55
2017-07-25T03:40:20.505Z,939.55
2017-07-25T03:40:48.935Z,939.54
2017-07-25T03:41:17.055Z,939.52
2017-07-25T03:41:45.109Z,939.52
2017-07-25T03:42:13.248Z,939.55
2017-07-25T03:42:41.395Z,939.5
2017-07-25T03:43:09.606Z,939.54
2017-07-25T03:43:37.768Z,939.49
2017-07-25T03:44:05.935Z,939.5
2017-07-25T03:44:34.160Z,939.49
2017-07-25T03:45:02.375Z,939.5
2017-07-25T03:45:30.460Z,939.49
2017-07-25T03:45:58.701Z,939.47
2017-07-25T03:46:26.822Z,939.46
2017-07-25T03:46:54.942Z,939.49
2017-07-25T03:47:23.023Z,939.5
2017-07-25T03:47:50.981Z,939.46
2017-07-25T03:48:19.120Z,939.48
2017-07-25T03:48:47.153Z,939.46
2017-07-25T03:49:15.248Z,939.46
2017-07-25T03:49:43.356Z,939.44
2017-07-25T03:50:11.573Z,939.47
2017-07-25T03:50:39.760Z,939.46
2017-07-25T03:51:07.922Z,939.46
2017-07-25T03:51:36.084Z,939.44
2017-07-25T03:52:04.331Z,939.46
2017-07-25T03:52:32.282Z,939.45
2017-07-25T03:53:00.310Z,939.41
2017-07-25T03:53:28.331Z,939.42
2017-07-25T03:53:56.530Z,939.42
2017-07-25T03:54:24.839Z,939.42
2017-07-25T03:54:53.193Z,939.4
2017-07-25T03:55:21.304Z,939.42
2017-07-25T03:55:49.535Z,939.44
2017-07-25T03:56:17.591Z,939.41
2017-07-25T03:56:45.726Z,939.42
2017-07-25T03:57:13.824Z,939.45
2017-07-25T03:57:41.942Z,939.45
2017-07-25T03:58:10.055Z,939.42
2017-07-25T03:58:38.291Z,939.44
2017-07-25T03:59:06.496Z,939.41
2017-07-25T03:59:34.710Z,939.4
2017-07-25T04:00:02.927Z,939.43
2017-07-25T04:00:31.190Z,939.43
2017-07-25T04:00:59.339Z,939.4
2017-07-25T04:01:27.558Z,939.44
2017-07-25T04:01:55.604Z,939.41
2017-07-25T04:02:23.845Z,939.42
2017-07-25T04:02:52.069Z,939.38
2017-07-25T04:03:20.183Z,939.39
2017-07-25T04:03:48.367Z,939.38
2017-07-25T04:04:16.458Z,939.37
2017-07-25T04:04:44.687Z,939.37
2017-07-25T04:05:12.757Z,939.39
2017-07-25T04:05:40.860Z,939.37
2017-07-25T04:06:09.022Z,939.39
2017-07-25T04:06:37.177Z,939.4
2017-07-25T04:07:05.234Z,939.38
2017-07-25T04:07:33.447Z,939.38
2017-07-25T04:08:01.602Z,939.37
2017-07-25T04:08:29.704Z,939.36
2017-07-25T04:08:57.873Z,939.35
2017-07-25T04:09:26.086Z,939.35
2017-07-25T04:09:54.431Z,939.39
2017-07-25T04:10:22.473Z,939.39
2017-07-25T04:10:50.679Z,939.36
2017-07-25T04:11:18.870Z,939.4
2017-07-25T04:11:47.076Z,939.37
2017-07-25T04:12:15.289Z,939.33
2017-07-25T04:12:43.389Z,939.36
2017-07-25T04:13:11.572Z,939.35
2017-07-25T04:13:39.818Z,939.35
2017-07-25T04:14:07.929Z,939.36
2017-07-25T04:14:36.023Z,939.34
2017-07-25T04:15:04.240Z,939.37
2017-07-25T04:15:32.317Z,939.36
2017-07-25T04:16:00.413Z,939.36
2017-07-25T04:16:28.604Z,939.37
2017-07-25T04:16:56.685Z,939.38
2017-07-25T04:17:24.861Z,939.34
2017-07-25T04:17:53.103Z,939.35
2017-07-25T04:18:21.259Z,939.33
2017-07-25T04:18:49.488Z,939.37
2017-07-25T04:19:17.531Z,939.37
2017-07-25T04:19:45.630Z,939.35
2017-07-25T04:20:13.781Z,939.38
2017-07-25T04:20:41.973Z,939.33
2017-07-25T04:21:10.225Z,939.37
2017-07-25T04:21:38.308Z,939.37
2017-07-25T04:22:06.276Z,939.4
2017-07-25T04:22:34.422Z,939.37
2017-07-25T04:23:02.541Z,939.36
2017-07-25T04:23:30.789Z,939.39
2017-07-25T04:23:58.827Z,939.38
2017-07-25T04:24:26.990Z,939.35
2017-07-25T04:24:55.256Z,939.37
2017-07-25T04:25:23.401Z,939.36
2017-07-25T04:25:51.489Z,939.4
2017-07-25T04:26:19.529Z,939.41
2017-07-25T04:26:47.807Z,939.41
2017-07-25T04:27:16.018Z,939.38
2017-07-25T04:27:44.125Z,939.37
2017-07-25T04:28:12.261Z,939.38
2017-07-25T04:28:40.505Z,939.39
2017-07-25T04:29:08.664Z,939.38
2017-07-25T04:29:36.807Z,939.38
2017-07-25T04:30:04.925Z,939.39
2017-07-25T04:30:33.128Z,939.4
2017-07-25T04:31:01.343Z,939.39
2017-07-25T04:31:29.462Z,939.39
2017-07-25T04:31:57.686Z,939.39
2017-07-25T04:32:25.860Z,939.41
2017-07-25T04:32:54.037Z,939.38
2017-07-25T04:33:22.224Z,939.38
2017-07-25T04:33:50.408Z,939.37
2017-07-25T04:34:18.530Z,939.37
2017-07-25T04:34:46.631Z,939.37
2017-07-25T04:35:15.029Z,939.36
2017-07-25T04:35:43.123Z,939.35
2017-07-25T04:36:11.368Z,939.36
2017-07-25T04:36:39.601Z,939.38
2017-07-25T04:37:07.825Z,939.37
2017-07-25T04:37:35.898Z,939.36
2017-07-25T04:38:04.025Z,939.35
2017-07-25T04:38:32.244Z,939.38
2017-07-25T04:39:00.351Z,939.33
2017-07-25T04:39:28.605Z,939.32
2017-07-25T04:39:56.884Z,939.34
2017-07-25T04:40:25.110Z,939.34
2017-07-25T04:40:53.298Z,939.34
2017-07-25T04:41:21.430Z,939.31
2017-07-25T04:41:49.564Z,939.31
2017-07-25T04:42:17.680Z,939.33
2017-07-25T04:42:45.841Z,939.32
2017-07-25T04:43:13.843Z,939.3
2017-07-25T04:43:42.052Z,939.31
2017-07-25T04:44:10.170Z,939.29
2017-07-25T04:44:38.339Z,939.3
2017-07-25T04:45:06.558Z,939.32
2017-07-25T04:45:34.692Z,939.32
2017-07-25T04:46:02.880Z,939.32
2017-07-25T04:46:31.106Z,939.3
2017-07-25T04:46:59.325Z,939.29
2017-07-25T04:47:27.376Z,939.31
2017-07-25T04:47:55.555Z,939.3
2017-07-25T04:48:23.708Z,939.29
2017-07-25T04:48:51.833Z,939.31
2017-07-25T04:49:20.021Z,939.3
2017-07-25T04:49:48.229Z,939.34
2017-07-25T04:50:16.551Z,939.31
2017-07-25T04:50:44.666Z,939.3
2017-07-25T04:51:12.788Z,939.31
2017-07-25T04:51:40.736Z,939.29
2017-07-25T04:52:08.926Z,939.28
2017-07-25T04:52:36.964Z,939.27
2017-07-25T04:53:05.204Z,939.28
2017-07-25T04:53:33.309Z,939.28
2017-07-25T04:54:01.513Z,939.26
2017-07-25T04:54:29.585Z,939.27
2017-07-25T04:54:57.697Z,939.28
2017-07-25T04:55:25.999Z,939.28
2017-07-25T04:55:54.152Z,939.28
2017-07-25T04:56:22.272Z,939.25
2017-07-25T04:56:50.397Z,939.3
2017-07-25T04:57:18.643Z,939.28
2017-07-25T04:57:46.752Z,939.27
2017-07-25T04:58:14.949Z,939.29
2017-07-25T04:58:43.139Z,939.29
2017-07-25T04:59:11.230Z,939.29
2017-07-25T04:59:39.415Z,939.28
2017-07-25T05:00:07.635Z,939.26
2017-07-25T05:00:35.814Z,939.25
2017-07-25T05:01:04.091Z,939.26
2017-07-25T05:01:32.303Z,939.27
2017-07-25T05:02:00.528Z,939.25
2017-07-25T05:02:28.650Z,939.25
2017-07-25T05:02:56.864Z,939.23
2017-07-25T05:03:25.009Z,939.27
2017-07-25T05:03:53.051Z,939.26
2017-07-25T05:04:21.291Z,939.26
2017-07-25T05:04:49.490Z,939.23
2017-07-25T05:05:17.723Z,939.28
2017-07-25T05:05:45.772Z,939.25
2017-07-25T05:06:13.774Z,939.26
2017-07-25T05:06:41.955Z,939.26
2017-07-25T05:07:09.844Z,939.25
2017-07-25T05:07:38.064Z,939.22
2017-07-25T05:08:06.148Z,939.25
2017-07-25T05:08:34.244Z,939.25
2017-07-25T05:09:02.350Z,939.23
2017-07-25T05:09:30.441Z,939.24
2017-07-25T05:09:58.550Z,939.24
2017-07-25T05:10:26.749Z,939.27
2017-07-25T05:10:54.843Z,939.25
2017-07-25T05:11:23.078Z,939.29
2017-07-25T05:11:51.077Z,939.29
2017-07-25T05:12:19.152Z,939.28
2017-07-25T05:12:47.241Z,939.28
2017-07-25T05:13:15.435Z,939.27
2017-07-25T05:13:43.668Z,939.25
2017-07-25T05:14:11.879Z,939.22
2017-07-25T05:14:39.959Z,939.24
2017-07-25T05:15:08.073Z,939.23
2017-07-25T05:15:36.338Z,939.22
2017-07-25T05:16:04.584Z,939.21
2017-07-25T05:16:32.829Z,939.19
2017-07-25T05:17:00.867Z,939.2
2017-07-25T05:17:28.785Z,939.21
2017-07-25T05:17:56.810Z,939.23
2017-07-25T05:18:25.027Z,939.25
2017-07-25T05:18:53.210Z,939.2
2017-07-25T05:19:21.298Z,939.23
2017-07-25T05:19:49.493Z,939.22
2017-07-25T05:20:17.685Z,939.18
2017-07-25T05:20:45.823Z,939.2
2017-07-25T05:21:13.976Z,939.17
2017-07-25T05:21:42.099Z,939.24
2017-07-25T05:22:10.373Z,939.18
2017-07-25T05:22:38.512Z,939.19
2017-07-25T05:23:06.655Z,939.18
2017-07-25T05:23:34.874Z,939.19
2017-07-25T05:24:03.077Z,939.17
2017-07-25T05:24:31.246Z,939.15
2017-07-25T05:24:59.278Z,939.15
2017-07-25T05:25:27.679Z,939.19
2017-07-25T05:25:55.757Z,939.16
2017-07-25T05:26:23.991Z,939.15
2017-07-25T05:26:52.088Z,939.18
2017-07-25T05:27:20.227Z,939.12
2017-07-25T05:27:48.300Z,939.09
2017-07-25T05:28:16.446Z,939.13
2017-07-25T05:28:44.618Z,939.13
2017-07-25T05:29:12.767Z,939.13
2017-07-25T05:29:40.818Z,939.1
2017-07-25T05:30:08.930Z,939.06
2017-07-25T05:30:37.274Z,939.11
2017-07-25T05:31:05.494Z,939.1
2017-07-25T05:31:33.625Z,939.11
2017-07-25T05:32:01.809Z,939.11
2017-07-25T05:32:30.078Z,939.12
2017-07-25T05:32:58.344Z,939.12
2017-07-25T05:33:26.649Z,939.14
2017-07-25T05:33:54.900Z,939.1
2017-07-25T05:34:23.000Z,939.12
2017-07-25T05:34:51.028Z,939.12
2017-07-25T05:35:19.086Z,939.1
2017-07-25T05:35:47.353Z,939.14
2017-07-25T05:36:15.517Z,939.13
2017-07-25T05:36:43.639Z,939.13
2017-07-25T05:37:11.762Z,939.13
2017-07-25T05:37:39.862Z,939.13
2017-07-25T05:38:08.106Z,939.11
2017-07-25T05:38:36.313Z,939.13
2017-07-25T05:39:04.443Z,939.13
2017-07-25T05:39:32.584Z,939.16
2017-07-25T05:40:00.703Z,939.14
2017-07-25T05:40:28.797Z,939.16
2017-07-25T05:40:56.998Z,939.17
2017-07-25T05:41:25.121Z,939.16
2017-07-25T05:41:53.304Z,939.16
2017-07-25T05:42:21.430Z,939.16
2017-07-25T05:42:49.665Z,939.17
2017-07-25T05:43:17.820Z,939.17
2017-07-25T05:43:46.045Z,939.17
2017-07-25T05:44:14.149Z,939.2
2017-07-25T05:44:42.188Z,939.14
2017-07-25T05:45:10.228Z,939.22
2017-07-25T05:45:38.548Z,939.2
2017-07-25T05:46:06.602Z,939.21
2017-07-25T05:46:34.841Z,939.19
2017-07-25T05:47:02.963Z,939.18
2017-07-25T05:47:31.030Z,939.19
2017-07-25T05:47:59.237Z,939.21
2017-07-25T05:48:27.404Z,939.18
2017-07-25T05:48:55.572Z,939.19
2017-07-25T05:49:23.666Z,939.18
2017-07-25T05:49:51.745Z,939.18
2017-07-25T05:50:19.973Z,939.2
2017-07-25T05:50:48.191Z,939.17
2017-07-25T05:51:16.357Z,939.17
2017-07-25T05:51:44.591Z,939.17
2017-07-25T05:52:12.816Z,939.19